sensor_id;sensor_type;location;lat;lon;timestamp;P1;durP1;ratioP1;P2;durP2;ratioP2
75506;SDS011;64086;43.220;27.878;2022-10-16T00:00:17;14.88;;;13.40;;
75506;SDS011;64086;43.220;27.878;2022-10-16T00:02:42;13.65;;;12.35;;
75506;SDS011;64086;43.220;27.878;2022-10-16T00:05:08;14.27;;;12.77;;
75506;SDS011;64086;43.220;27.878;2022-10-16T00:07:33;13.25;;;11.98;;
75506;SDS011;64086;43.220;27.878;2022-10-16T00:09:59;13.57;;;12.18;;
75506;SDS011;64086;43.220;27.878;2022-10-16T00:12:24;12.60;;;11.43;;
75506;SDS011;64086;43.220;27.878;2022-10-16T00:14:50;11.73;;;10.27;;
75506;SDS011;64086;43.220;27.878;2022-10-16T00:17:15;12.18;;;10.68;;
75506;SDS011;64086;43.220;27.878;2022-10-16T00:19:41;11.63;;;10.48;;
75506;SDS011;64086;43.220;27.878;2022-10-16T00:22:06;11.23;;;10.13;;
75506;SDS011;64086;43.220;27.878;2022-10-16T00:24:32;11.68;;;9.90;;
75506;SDS011;64086;43.220;27.878;2022-10-16T00:26:57;11.30;;;10.05;;
75506;SDS011;64086;43.220;27.878;2022-10-16T00:29:22;11.40;;;10.23;;
75506;SDS011;64086;43.220;27.878;2022-10-16T00:31:48;10.50;;;9.52;;
75506;SDS011;64086;43.220;27.878;2022-10-16T00:34:13;10.60;;;9.65;;
75506;SDS011;64086;43.220;27.878;2022-10-16T00:36:39;10.93;;;8.60;;
75506;SDS011;64086;43.220;27.878;2022-10-16T00:39:04;9.65;;;8.75;;
75506;SDS011;64086;43.220;27.878;2022-10-16T00:41:30;10.50;;;9.35;;
75506;SDS011;64086;43.220;27.878;2022-10-16T00:43:56;10.82;;;8.88;;
75506;SDS011;64086;43.220;27.878;2022-10-16T00:46:33;12.27;;;8.70;;
75506;SDS011;64086;43.220;27.878;2022-10-16T00:51:39;10.20;;;9.27;;
75506;SDS011;64086;43.220;27.878;2022-10-16T00:54:12;9.57;;;8.55;;
75506;SDS011;64086;43.220;27.878;2022-10-16T00:56:40;9.20;;;8.20;;
75506;SDS011;64086;43.220;27.878;2022-10-16T00:59:07;10.85;;;8.50;;
75506;SDS011;64086;43.220;27.878;2022-10-16T01:01:40;11.45;;;8.18;;
75506;SDS011;64086;43.220;27.878;2022-10-16T01:04:06;9.85;;;8.77;;
75506;SDS011;64086;43.220;27.878;2022-10-16T01:06:43;9.13;;;8.27;;
75506;SDS011;64086;43.220;27.878;2022-10-16T01:09:15;8.93;;;8.05;;
75506;SDS011;64086;43.220;27.878;2022-10-16T01:11:50;11.00;;;8.10;;
75506;SDS011;64086;43.220;27.878;2022-10-16T01:17:17;8.85;;;7.95;;
75506;SDS011;64086;43.220;27.878;2022-10-16T01:22:13;8.45;;;7.65;;
75506;SDS011;64086;43.220;27.878;2022-10-16T01:24:40;8.27;;;7.40;;
75506;SDS011;64086;43.220;27.878;2022-10-16T01:30:10;8.48;;;7.65;;
75506;SDS011;64086;43.220;27.878;2022-10-16T01:32:50;11.82;;;7.22;;
75506;SDS011;64086;43.220;27.878;2022-10-16T01:35:21;10.25;;;8.30;;
75506;SDS011;64086;43.220;27.878;2022-10-16T01:38:29;8.70;;;7.80;;
75506;SDS011;64086;43.220;27.878;2022-10-16T01:40:58;8.50;;;6.93;;
75506;SDS011;64086;43.220;27.878;2022-10-16T01:43:36;8.20;;;7.15;;
75506;SDS011;64086;43.220;27.878;2022-10-16T01:46:05;8.15;;;7.15;;
75506;SDS011;64086;43.220;27.878;2022-10-16T01:48:31;8.00;;;7.20;;
75506;SDS011;64086;43.220;27.878;2022-10-16T01:51:03;8.43;;;7.18;;
75506;SDS011;64086;43.220;27.878;2022-10-16T01:53:37;9.32;;;6.85;;
75506;SDS011;64086;43.220;27.878;2022-10-16T01:56:03;8.00;;;6.90;;
75506;SDS011;64086;43.220;27.878;2022-10-16T01:58:30;9.93;;;7.43;;
75506;SDS011;64086;43.220;27.878;2022-10-16T02:00:59;8.18;;;6.63;;
75506;SDS011;64086;43.220;27.878;2022-10-16T02:03:26;8.40;;;6.18;;
75506;SDS011;64086;43.220;27.878;2022-10-16T02:05:53;7.13;;;6.43;;
75506;SDS011;64086;43.220;27.878;2022-10-16T02:08:19;7.97;;;6.47;;
75506;SDS011;64086;43.220;27.878;2022-10-16T02:10:46;7.30;;;6.55;;
75506;SDS011;64086;43.220;27.878;2022-10-16T02:15:45;7.18;;;6.47;;
75506;SDS011;64086;43.220;27.878;2022-10-16T02:18:10;6.55;;;5.70;;
75506;SDS011;64086;43.220;27.878;2022-10-16T02:20:38;6.10;;;5.45;;
75506;SDS011;64086;43.220;27.878;2022-10-16T02:23:10;9.35;;;6.05;;
75506;SDS011;64086;43.220;27.878;2022-10-16T02:25:38;7.68;;;5.78;;
75506;SDS011;64086;43.220;27.878;2022-10-16T02:28:14;6.80;;;5.75;;
75506;SDS011;64086;43.220;27.878;2022-10-16T02:30:43;7.40;;;5.80;;
75506;SDS011;64086;43.220;27.878;2022-10-16T02:33:12;6.60;;;5.60;;
75506;SDS011;64086;43.220;27.878;2022-10-16T02:35:41;8.57;;;5.70;;
75506;SDS011;64086;43.220;27.878;2022-10-16T02:38:07;6.72;;;5.95;;
75506;SDS011;64086;43.220;27.878;2022-10-16T02:40:33;5.72;;;5.20;;
75506;SDS011;64086;43.220;27.878;2022-10-16T02:42:58;7.20;;;5.63;;
75506;SDS011;64086;43.220;27.878;2022-10-16T02:45:24;7.57;;;5.55;;
75506;SDS011;64086;43.220;27.878;2022-10-16T02:47:50;6.38;;;5.60;;
75506;SDS011;64086;43.220;27.878;2022-10-16T02:50:15;6.13;;;5.53;;
75506;SDS011;64086;43.220;27.878;2022-10-16T02:52:41;6.22;;;5.13;;
75506;SDS011;64086;43.220;27.878;2022-10-16T02:55:07;7.22;;;5.70;;
75506;SDS011;64086;43.220;27.878;2022-10-16T02:57:32;6.10;;;5.47;;
75506;SDS011;64086;43.220;27.878;2022-10-16T02:59:58;6.40;;;5.40;;
75506;SDS011;64086;43.220;27.878;2022-10-16T03:02:23;5.55;;;5.05;;
75506;SDS011;64086;43.220;27.878;2022-10-16T03:04:49;8.38;;;5.40;;
75506;SDS011;64086;43.220;27.878;2022-10-16T03:07:14;7.75;;;5.00;;
75506;SDS011;64086;43.220;27.878;2022-10-16T03:09:39;6.35;;;5.13;;
75506;SDS011;64086;43.220;27.878;2022-10-16T03:12:05;6.20;;;5.32;;
75506;SDS011;64086;43.220;27.878;2022-10-16T03:14:31;7.22;;;5.13;;
75506;SDS011;64086;43.220;27.878;2022-10-16T03:16:57;7.88;;;5.13;;
75506;SDS011;64086;43.220;27.878;2022-10-16T03:19:22;7.63;;;5.20;;
75506;SDS011;64086;43.220;27.878;2022-10-16T03:21:48;5.45;;;4.78;;
75506;SDS011;64086;43.220;27.878;2022-10-16T03:24:13;7.45;;;5.30;;
75506;SDS011;64086;43.220;27.878;2022-10-16T03:26:39;6.53;;;5.35;;
75506;SDS011;64086;43.220;27.878;2022-10-16T03:29:04;5.88;;;5.00;;
75506;SDS011;64086;43.220;27.878;2022-10-16T03:31:30;5.85;;;5.20;;
75506;SDS011;64086;43.220;27.878;2022-10-16T03:33:56;6.60;;;5.07;;
75506;SDS011;64086;43.220;27.878;2022-10-16T03:36:21;6.68;;;4.70;;
75506;SDS011;64086;43.220;27.878;2022-10-16T03:38:47;6.90;;;4.90;;
75506;SDS011;64086;43.220;27.878;2022-10-16T03:41:12;7.85;;;5.25;;
75506;SDS011;64086;43.220;27.878;2022-10-16T03:43:38;6.10;;;5.07;;
75506;SDS011;64086;43.220;27.878;2022-10-16T03:46:03;6.55;;;5.25;;
75506;SDS011;64086;43.220;27.878;2022-10-16T03:48:29;5.78;;;5.20;;
75506;SDS011;64086;43.220;27.878;2022-10-16T03:50:54;6.55;;;5.43;;
75506;SDS011;64086;43.220;27.878;2022-10-16T03:53:20;10.30;;;5.60;;
75506;SDS011;64086;43.220;27.878;2022-10-16T03:55:46;6.10;;;5.50;;
75506;SDS011;64086;43.220;27.878;2022-10-16T03:58:11;6.85;;;5.13;;
75506;SDS011;64086;43.220;27.878;2022-10-16T04:00:40;8.45;;;5.65;;
75506;SDS011;64086;43.220;27.878;2022-10-16T04:03:07;7.22;;;5.40;;
75506;SDS011;64086;43.220;27.878;2022-10-16T04:05:32;6.45;;;5.80;;
75506;SDS011;64086;43.220;27.878;2022-10-16T04:07:57;7.68;;;5.60;;
75506;SDS011;64086;43.220;27.878;2022-10-16T04:10:23;7.22;;;5.72;;
75506;SDS011;64086;43.220;27.878;2022-10-16T04:12:48;6.75;;;5.32;;
75506;SDS011;64086;43.220;27.878;2022-10-16T04:15:14;6.45;;;5.78;;
75506;SDS011;64086;43.220;27.878;2022-10-16T04:17:39;5.82;;;5.22;;
75506;SDS011;64086;43.220;27.878;2022-10-16T04:20:05;7.72;;;5.20;;
75506;SDS011;64086;43.220;27.878;2022-10-16T04:22:30;6.57;;;5.85;;
75506;SDS011;64086;43.220;27.878;2022-10-16T04:24:56;8.23;;;5.82;;
75506;SDS011;64086;43.220;27.878;2022-10-16T04:27:21;6.60;;;5.90;;
75506;SDS011;64086;43.220;27.878;2022-10-16T04:29:47;6.43;;;5.65;;
75506;SDS011;64086;43.220;27.878;2022-10-16T04:32:12;9.45;;;5.90;;
75506;SDS011;64086;43.220;27.878;2022-10-16T04:34:38;7.88;;;6.00;;
75506;SDS011;64086;43.220;27.878;2022-10-16T04:37:04;8.43;;;6.53;;
75506;SDS011;64086;43.220;27.878;2022-10-16T04:39:30;7.63;;;6.90;;
75506;SDS011;64086;43.220;27.878;2022-10-16T04:41:55;7.32;;;6.53;;
75506;SDS011;64086;43.220;27.878;2022-10-16T04:44:21;9.90;;;6.40;;
75506;SDS011;64086;43.220;27.878;2022-10-16T04:46:46;7.53;;;6.50;;
75506;SDS011;64086;43.220;27.878;2022-10-16T04:49:12;8.20;;;6.95;;
75506;SDS011;64086;43.220;27.878;2022-10-16T04:51:37;8.75;;;6.20;;
75506;SDS011;64086;43.220;27.878;2022-10-16T04:54:03;9.48;;;7.43;;
75506;SDS011;64086;43.220;27.878;2022-10-16T04:56:28;8.27;;;7.40;;
75506;SDS011;64086;43.220;27.878;2022-10-16T04:58:53;7.47;;;6.78;;
75506;SDS011;64086;43.220;27.878;2022-10-16T05:01:19;7.78;;;7.07;;
75506;SDS011;64086;43.220;27.878;2022-10-16T05:03:44;7.68;;;6.82;;
75506;SDS011;64086;43.220;27.878;2022-10-16T05:06:10;8.13;;;6.93;;
75506;SDS011;64086;43.220;27.878;2022-10-16T05:08:35;8.43;;;7.55;;
75506;SDS011;64086;43.220;27.878;2022-10-16T05:11:01;7.60;;;6.80;;
75506;SDS011;64086;43.220;27.878;2022-10-16T05:13:27;6.97;;;6.38;;
75506;SDS011;64086;43.220;27.878;2022-10-16T05:15:52;9.75;;;7.40;;
75506;SDS011;64086;43.220;27.878;2022-10-16T05:18:18;7.50;;;6.80;;
75506;SDS011;64086;43.220;27.878;2022-10-16T05:20:43;7.20;;;6.50;;
75506;SDS011;64086;43.220;27.878;2022-10-16T05:23:09;6.97;;;6.38;;
75506;SDS011;64086;43.220;27.878;2022-10-16T05:25:37;8.20;;;6.15;;
75506;SDS011;64086;43.220;27.878;2022-10-16T05:28:02;7.40;;;6.45;;
75506;SDS011;64086;43.220;27.878;2022-10-16T05:30:28;7.68;;;6.95;;
75506;SDS011;64086;43.220;27.878;2022-10-16T05:32:53;8.18;;;6.72;;
75506;SDS011;64086;43.220;27.878;2022-10-16T05:35:19;7.65;;;6.55;;
75506;SDS011;64086;43.220;27.878;2022-10-16T05:37:45;7.05;;;6.35;;
75506;SDS011;64086;43.220;27.878;2022-10-16T05:40:11;5.82;;;5.18;;
75506;SDS011;64086;43.220;27.878;2022-10-16T05:42:38;6.28;;;5.65;;
75506;SDS011;64086;43.220;27.878;2022-10-16T05:45:04;8.38;;;5.55;;
75506;SDS011;64086;43.220;27.878;2022-10-16T05:47:37;6.90;;;6.03;;
75506;SDS011;64086;43.220;27.878;2022-10-16T05:50:03;6.00;;;5.40;;
75506;SDS011;64086;43.220;27.878;2022-10-16T05:52:29;6.22;;;5.63;;
75506;SDS011;64086;43.220;27.878;2022-10-16T05:54:54;7.28;;;5.88;;
75506;SDS011;64086;43.220;27.878;2022-10-16T05:57:20;6.82;;;5.50;;
75506;SDS011;64086;43.220;27.878;2022-10-16T05:59:45;7.25;;;5.78;;
75506;SDS011;64086;43.220;27.878;2022-10-16T06:02:14;6.95;;;5.88;;
75506;SDS011;64086;43.220;27.878;2022-10-16T06:04:40;6.15;;;5.57;;
75506;SDS011;64086;43.220;27.878;2022-10-16T06:07:05;7.55;;;6.85;;
75506;SDS011;64086;43.220;27.878;2022-10-16T06:09:31;7.63;;;7.03;;
75506;SDS011;64086;43.220;27.878;2022-10-16T06:11:56;7.93;;;7.13;;
75506;SDS011;64086;43.220;27.878;2022-10-16T06:14:22;10.15;;;6.68;;
75506;SDS011;64086;43.220;27.878;2022-10-16T06:16:47;7.55;;;6.90;;
75506;SDS011;64086;43.220;27.878;2022-10-16T06:19:13;8.05;;;7.35;;
75506;SDS011;64086;43.220;27.878;2022-10-16T06:21:38;7.63;;;6.90;;
75506;SDS011;64086;43.220;27.878;2022-10-16T06:24:04;7.70;;;6.90;;
75506;SDS011;64086;43.220;27.878;2022-10-16T06:26:30;7.28;;;6.55;;
75506;SDS011;64086;43.220;27.878;2022-10-16T06:28:56;7.90;;;6.90;;
75506;SDS011;64086;43.220;27.878;2022-10-16T06:31:23;7.55;;;6.90;;
75506;SDS011;64086;43.220;27.878;2022-10-16T06:33:52;6.03;;;5.43;;
75506;SDS011;64086;43.220;27.878;2022-10-16T06:36:18;6.07;;;5.30;;
75506;SDS011;64086;43.220;27.878;2022-10-16T06:38:45;4.65;;;3.75;;
75506;SDS011;64086;43.220;27.878;2022-10-16T06:41:17;5.30;;;4.30;;
75506;SDS011;64086;43.220;27.878;2022-10-16T06:43:45;5.32;;;4.00;;
75506;SDS011;64086;43.220;27.878;2022-10-16T06:46:11;17.02;;;6.35;;
75506;SDS011;64086;43.220;27.878;2022-10-16T06:48:38;6.93;;;4.47;;
75506;SDS011;64086;43.220;27.878;2022-10-16T06:53:33;5.43;;;3.90;;
75506;SDS011;64086;43.220;27.878;2022-10-16T06:56:09;6.30;;;3.55;;
75506;SDS011;64086;43.220;27.878;2022-10-16T06:58:55;5.97;;;3.60;;
75506;SDS011;64086;43.220;27.878;2022-10-16T07:01:22;4.85;;;3.40;;
75506;SDS011;64086;43.220;27.878;2022-10-16T07:03:48;5.68;;;3.65;;
75506;SDS011;64086;43.220;27.878;2022-10-16T07:06:15;5.60;;;3.63;;
75506;SDS011;64086;43.220;27.878;2022-10-16T07:08:43;4.75;;;3.55;;
75506;SDS011;64086;43.220;27.878;2022-10-16T07:11:13;5.63;;;3.40;;
75506;SDS011;64086;43.220;27.878;2022-10-16T07:13:41;4.72;;;3.10;;
75506;SDS011;64086;43.220;27.878;2022-10-16T07:16:08;6.35;;;3.63;;
75506;SDS011;64086;43.220;27.878;2022-10-16T07:18:34;5.65;;;3.30;;
75506;SDS011;64086;43.220;27.878;2022-10-16T07:21:04;5.57;;;3.40;;
75506;SDS011;64086;43.220;27.878;2022-10-16T07:23:29;5.00;;;3.30;;
75506;SDS011;64086;43.220;27.878;2022-10-16T07:25:55;4.05;;;3.30;;
75506;SDS011;64086;43.220;27.878;2022-10-16T07:28:20;4.25;;;3.40;;
75506;SDS011;64086;43.220;27.878;2022-10-16T07:30:46;4.63;;;3.50;;
75506;SDS011;64086;43.220;27.878;2022-10-16T07:33:12;4.80;;;3.30;;
75506;SDS011;64086;43.220;27.878;2022-10-16T07:35:37;3.92;;;3.17;;
75506;SDS011;64086;43.220;27.878;2022-10-16T07:38:03;5.57;;;3.17;;
75506;SDS011;64086;43.220;27.878;2022-10-16T07:40:28;4.22;;;3.20;;
75506;SDS011;64086;43.220;27.878;2022-10-16T07:42:54;4.63;;;2.97;;
75506;SDS011;64086;43.220;27.878;2022-10-16T07:45:19;4.20;;;2.67;;
75506;SDS011;64086;43.220;27.878;2022-10-16T07:47:45;6.15;;;2.97;;
75506;SDS011;64086;43.220;27.878;2022-10-16T07:50:10;4.60;;;3.47;;
75506;SDS011;64086;43.220;27.878;2022-10-16T07:52:36;5.80;;;3.10;;
75506;SDS011;64086;43.220;27.878;2022-10-16T07:55:01;4.57;;;2.90;;
75506;SDS011;64086;43.220;27.878;2022-10-16T07:57:27;4.07;;;3.20;;
75506;SDS011;64086;43.220;27.878;2022-10-16T07:59:52;3.53;;;3.22;;
75506;SDS011;64086;43.220;27.878;2022-10-16T08:02:18;5.25;;;3.03;;
75506;SDS011;64086;43.220;27.878;2022-10-16T08:04:43;5.45;;;3.20;;
75506;SDS011;64086;43.220;27.878;2022-10-16T08:07:11;3.92;;;3.00;;
75506;SDS011;64086;43.220;27.878;2022-10-16T08:09:37;5.70;;;3.33;;
75506;SDS011;64086;43.220;27.878;2022-10-16T08:12:02;3.72;;;3.05;;
75506;SDS011;64086;43.220;27.878;2022-10-16T08:14:29;4.82;;;2.90;;
75506;SDS011;64086;43.220;27.878;2022-10-16T08:16:54;5.07;;;3.10;;
75506;SDS011;64086;43.220;27.878;2022-10-16T08:19:20;4.32;;;3.00;;
75506;SDS011;64086;43.220;27.878;2022-10-16T08:21:48;5.28;;;3.00;;
75506;SDS011;64086;43.220;27.878;2022-10-16T08:24:14;5.45;;;3.08;;
75506;SDS011;64086;43.220;27.878;2022-10-16T08:26:39;4.88;;;2.80;;
75506;SDS011;64086;43.220;27.878;2022-10-16T08:29:05;5.40;;;3.10;;
75506;SDS011;64086;43.220;27.878;2022-10-16T08:31:30;3.20;;;2.65;;
75506;SDS011;64086;43.220;27.878;2022-10-16T08:33:55;4.82;;;2.92;;
75506;SDS011;64086;43.220;27.878;2022-10-16T08:36:21;5.40;;;3.55;;
75506;SDS011;64086;43.220;27.878;2022-10-16T08:38:47;3.58;;;3.03;;
75506;SDS011;64086;43.220;27.878;2022-10-16T08:49:10;5.25;;;3.47;;
75506;SDS011;64086;43.220;27.878;2022-10-16T08:51:38;4.63;;;2.70;;
75506;SDS011;64086;43.220;27.878;2022-10-16T08:54:05;5.57;;;3.10;;
75506;SDS011;64086;43.220;27.878;2022-10-16T08:56:34;3.90;;;3.00;;
75506;SDS011;64086;43.220;27.878;2022-10-16T08:58:59;4.68;;;2.80;;
75506;SDS011;64086;43.220;27.878;2022-10-16T09:01:28;3.85;;;3.28;;
75506;SDS011;64086;43.220;27.878;2022-10-16T09:06:47;5.03;;;2.78;;
75506;SDS011;64086;43.220;27.878;2022-10-16T09:12:18;5.13;;;3.10;;
75506;SDS011;64086;43.220;27.878;2022-10-16T09:14:53;5.45;;;3.00;;
75506;SDS011;64086;43.220;27.878;2022-10-16T09:20:20;4.90;;;3.45;;
75506;SDS011;64086;43.220;27.878;2022-10-16T09:23:21;4.78;;;3.53;;
75506;SDS011;64086;43.220;27.878;2022-10-16T09:25:49;5.35;;;3.65;;
75506;SDS011;64086;43.220;27.878;2022-10-16T09:28:16;4.45;;;3.30;;
75506;SDS011;64086;43.220;27.878;2022-10-16T09:30:42;5.20;;;3.10;;
75506;SDS011;64086;43.220;27.878;2022-10-16T09:33:09;3.88;;;2.92;;
75506;SDS011;64086;43.220;27.878;2022-10-16T09:35:39;5.10;;;3.03;;
75506;SDS011;64086;43.220;27.878;2022-10-16T09:38:22;5.45;;;3.17;;
75506;SDS011;64086;43.220;27.878;2022-10-16T09:41:02;5.95;;;3.25;;
75506;SDS011;64086;43.220;27.878;2022-10-16T09:43:40;4.47;;;2.80;;
75506;SDS011;64086;43.220;27.878;2022-10-16T09:46:08;3.90;;;2.90;;
75506;SDS011;64086;43.220;27.878;2022-10-16T09:48:47;4.60;;;2.90;;
75506;SDS011;64086;43.220;27.878;2022-10-16T09:51:35;3.33;;;2.88;;
75506;SDS011;64086;43.220;27.878;2022-10-16T09:56:39;4.60;;;2.92;;
75506;SDS011;64086;43.220;27.878;2022-10-16T09:59:11;5.20;;;2.63;;
75506;SDS011;64086;43.220;27.878;2022-10-16T10:01:41;4.68;;;2.55;;
75506;SDS011;64086;43.220;27.878;2022-10-16T10:04:10;4.80;;;2.88;;
75506;SDS011;64086;43.220;27.878;2022-10-16T10:06:45;4.65;;;2.70;;
75506;SDS011;64086;43.220;27.878;2022-10-16T10:09:37;3.78;;;2.95;;
75506;SDS011;64086;43.220;27.878;2022-10-16T10:12:04;4.05;;;2.70;;
75506;SDS011;64086;43.220;27.878;2022-10-16T10:14:47;6.20;;;3.47;;
75506;SDS011;64086;43.220;27.878;2022-10-16T10:17:15;3.92;;;2.83;;
75506;SDS011;64086;43.220;27.878;2022-10-16T10:22:42;4.10;;;2.80;;
75506;SDS011;64086;43.220;27.878;2022-10-16T10:33:24;4.65;;;2.50;;
75506;SDS011;64086;43.220;27.878;2022-10-16T10:36:08;4.15;;;2.90;;
75506;SDS011;64086;43.220;27.878;2022-10-16T10:38:56;4.30;;;2.88;;
75506;SDS011;64086;43.220;27.878;2022-10-16T10:46:58;5.70;;;3.08;;
75506;SDS011;64086;43.220;27.878;2022-10-16T10:52:27;4.18;;;2.58;;
75506;SDS011;64086;43.220;27.878;2022-10-16T11:01:04;4.65;;;2.85;;
75506;SDS011;64086;43.220;27.878;2022-10-16T11:09:02;5.97;;;2.88;;
75506;SDS011;64086;43.220;27.878;2022-10-16T11:11:59;4.18;;;2.45;;
75506;SDS011;64086;43.220;27.878;2022-10-16T11:14:40;4.75;;;2.53;;
75506;SDS011;64086;43.220;27.878;2022-10-16T11:17:12;4.72;;;2.70;;
75506;SDS011;64086;43.220;27.878;2022-10-16T11:19:51;4.22;;;2.90;;
75506;SDS011;64086;43.220;27.878;2022-10-16T11:30:05;5.47;;;3.03;;
75506;SDS011;64086;43.220;27.878;2022-10-16T11:32:45;4.95;;;3.10;;
75506;SDS011;64086;43.220;27.878;2022-10-16T11:35:53;3.55;;;2.97;;
75506;SDS011;64086;43.220;27.878;2022-10-16T11:38:26;3.70;;;2.90;;
75506;SDS011;64086;43.220;27.878;2022-10-16T11:40:54;4.20;;;3.03;;
75506;SDS011;64086;43.220;27.878;2022-10-16T11:43:32;4.45;;;2.97;;
75506;SDS011;64086;43.220;27.878;2022-10-16T11:46:04;3.72;;;3.08;;
75506;SDS011;64086;43.220;27.878;2022-10-16T11:48:36;4.55;;;3.20;;
75506;SDS011;64086;43.220;27.878;2022-10-16T11:51:36;4.38;;;3.00;;
75506;SDS011;64086;43.220;27.878;2022-10-16T11:56:41;4.65;;;2.90;;
75506;SDS011;64086;43.220;27.878;2022-10-16T12:06:58;4.20;;;3.33;;
75506;SDS011;64086;43.220;27.878;2022-10-16T12:09:29;4.85;;;3.20;;
75506;SDS011;64086;43.220;27.878;2022-10-16T12:11:56;5.38;;;3.47;;
75506;SDS011;64086;43.220;27.878;2022-10-16T12:16:58;5.25;;;3.20;;
75506;SDS011;64086;43.220;27.878;2022-10-16T12:19:25;3.95;;;3.08;;
75506;SDS011;64086;43.220;27.878;2022-10-16T12:21:54;4.10;;;3.05;;
75506;SDS011;64086;43.220;27.878;2022-10-16T12:24:23;4.63;;;3.15;;
75506;SDS011;64086;43.220;27.878;2022-10-16T12:26:55;3.80;;;2.92;;
75506;SDS011;64086;43.220;27.878;2022-10-16T12:29:39;5.07;;;3.28;;
75506;SDS011;64086;43.220;27.878;2022-10-16T12:32:26;3.70;;;3.30;;
75506;SDS011;64086;43.220;27.878;2022-10-16T12:34:53;4.05;;;3.60;;
75506;SDS011;64086;43.220;27.878;2022-10-16T12:39:44;4.82;;;2.90;;
75506;SDS011;64086;43.220;27.878;2022-10-16T12:44:50;5.30;;;3.72;;
75506;SDS011;64086;43.220;27.878;2022-10-16T12:47:23;8.48;;;3.75;;
75506;SDS011;64086;43.220;27.878;2022-10-16T12:50:00;5.22;;;3.78;;
75506;SDS011;64086;43.220;27.878;2022-10-16T12:52:37;6.53;;;3.20;;
75506;SDS011;64086;43.220;27.878;2022-10-16T12:55:04;5.20;;;3.53;;
75506;SDS011;64086;43.220;27.878;2022-10-16T13:00:21;6.47;;;3.70;;
75506;SDS011;64086;43.220;27.878;2022-10-16T13:08:22;4.10;;;3.70;;
75506;SDS011;64086;43.220;27.878;2022-10-16T13:13:58;5.78;;;3.90;;
75506;SDS011;64086;43.220;27.878;2022-10-16T13:26:57;5.22;;;4.22;;
75506;SDS011;64086;43.220;27.878;2022-10-16T13:29:30;6.05;;;3.83;;
75506;SDS011;64086;43.220;27.878;2022-10-16T13:31:56;4.63;;;3.85;;
75506;SDS011;64086;43.220;27.878;2022-10-16T13:34:23;5.30;;;4.20;;
75506;SDS011;64086;43.220;27.878;2022-10-16T13:36:49;6.30;;;4.40;;
75506;SDS011;64086;43.220;27.878;2022-10-16T13:39:26;5.15;;;4.28;;
75506;SDS011;64086;43.220;27.878;2022-10-16T13:44:42;5.15;;;4.03;;
75506;SDS011;64086;43.220;27.878;2022-10-16T13:47:16;5.22;;;3.92;;
75506;SDS011;64086;43.220;27.878;2022-10-16T13:49:42;5.60;;;4.40;;
75506;SDS011;64086;43.220;27.878;2022-10-16T13:52:19;6.95;;;4.10;;
75506;SDS011;64086;43.220;27.878;2022-10-16T13:54:46;5.00;;;3.95;;
75506;SDS011;64086;43.220;27.878;2022-10-16T13:57:13;4.68;;;3.80;;
75506;SDS011;64086;43.220;27.878;2022-10-16T13:59:39;5.15;;;3.85;;
75506;SDS011;64086;43.220;27.878;2022-10-16T14:02:15;7.03;;;3.58;;
75506;SDS011;64086;43.220;27.878;2022-10-16T14:04:48;5.13;;;4.00;;
75506;SDS011;64086;43.220;27.878;2022-10-16T14:07:14;7.32;;;3.75;;
75506;SDS011;64086;43.220;27.878;2022-10-16T14:09:47;7.18;;;3.40;;
75506;SDS011;64086;43.220;27.878;2022-10-16T14:12:13;4.90;;;3.58;;
75506;SDS011;64086;43.220;27.878;2022-10-16T14:14:40;5.43;;;3.42;;
75506;SDS011;64086;43.220;27.878;2022-10-16T14:17:13;5.05;;;3.30;;
75506;SDS011;64086;43.220;27.878;2022-10-16T14:19:39;6.15;;;3.70;;
75506;SDS011;64086;43.220;27.878;2022-10-16T14:22:26;4.57;;;3.15;;
75506;SDS011;64086;43.220;27.878;2022-10-16T14:24:53;5.70;;;3.30;;
75506;SDS011;64086;43.220;27.878;2022-10-16T14:27:24;5.90;;;3.42;;
75506;SDS011;64086;43.220;27.878;2022-10-16T14:30:12;3.75;;;3.30;;
75506;SDS011;64086;43.220;27.878;2022-10-16T14:32:40;5.63;;;3.50;;
75506;SDS011;64086;43.220;27.878;2022-10-16T14:35:30;4.97;;;3.28;;
75506;SDS011;64086;43.220;27.878;2022-10-16T14:37:54;4.75;;;3.35;;
75506;SDS011;64086;43.220;27.878;2022-10-16T14:40:22;5.30;;;3.40;;
75506;SDS011;64086;43.220;27.878;2022-10-16T14:42:49;5.30;;;3.20;;
75506;SDS011;64086;43.220;27.878;2022-10-16T14:45:18;6.28;;;3.28;;
75506;SDS011;64086;43.220;27.878;2022-10-16T14:47:48;4.43;;;2.90;;
75506;SDS011;64086;43.220;27.878;2022-10-16T14:50:15;7.50;;;3.25;;
75506;SDS011;64086;43.220;27.878;2022-10-16T14:52:40;4.25;;;2.97;;
75506;SDS011;64086;43.220;27.878;2022-10-16T14:55:08;4.65;;;3.13;;
75506;SDS011;64086;43.220;27.878;2022-10-16T14:57:34;5.25;;;3.08;;
75506;SDS011;64086;43.220;27.878;2022-10-16T15:00:01;5.53;;;3.45;;
75506;SDS011;64086;43.220;27.878;2022-10-16T15:02:28;5.28;;;3.25;;
75506;SDS011;64086;43.220;27.878;2022-10-16T15:04:58;4.20;;;3.47;;
75506;SDS011;64086;43.220;27.878;2022-10-16T15:07:43;4.20;;;3.53;;
75506;SDS011;64086;43.220;27.878;2022-10-16T15:10:09;5.82;;;3.70;;
75506;SDS011;64086;43.220;27.878;2022-10-16T15:12:35;5.93;;;3.58;;
75506;SDS011;64086;43.220;27.878;2022-10-16T15:15:01;6.40;;;3.25;;
75506;SDS011;64086;43.220;27.878;2022-10-16T15:17:26;5.90;;;3.33;;
75506;SDS011;64086;43.220;27.878;2022-10-16T15:19:52;6.25;;;3.40;;
75506;SDS011;64086;43.220;27.878;2022-10-16T15:22:17;9.13;;;3.90;;
75506;SDS011;64086;43.220;27.878;2022-10-16T15:24:43;7.22;;;4.20;;
75506;SDS011;64086;43.220;27.878;2022-10-16T15:27:08;5.22;;;3.90;;
75506;SDS011;64086;43.220;27.878;2022-10-16T15:29:34;5.45;;;3.72;;
75506;SDS011;64086;43.220;27.878;2022-10-16T15:31:59;6.85;;;3.78;;
75506;SDS011;64086;43.220;27.878;2022-10-16T15:34:24;5.35;;;3.38;;
75506;SDS011;64086;43.220;27.878;2022-10-16T15:36:50;5.40;;;3.67;;
75506;SDS011;64086;43.220;27.878;2022-10-16T15:39:16;7.18;;;4.25;;
75506;SDS011;64086;43.220;27.878;2022-10-16T15:41:46;5.32;;;3.38;;
75506;SDS011;64086;43.220;27.878;2022-10-16T15:44:18;7.00;;;4.05;;
75506;SDS011;64086;43.220;27.878;2022-10-16T15:46:45;6.70;;;4.03;;
75506;SDS011;64086;43.220;27.878;2022-10-16T15:49:10;5.35;;;3.95;;
75506;SDS011;64086;43.220;27.878;2022-10-16T15:51:40;5.60;;;4.32;;
75506;SDS011;64086;43.220;27.878;2022-10-16T15:54:06;4.65;;;4.13;;
75506;SDS011;64086;43.220;27.878;2022-10-16T15:56:32;7.35;;;4.50;;
75506;SDS011;64086;43.220;27.878;2022-10-16T15:59:01;5.88;;;4.45;;
75506;SDS011;64086;43.220;27.878;2022-10-16T16:01:26;6.65;;;4.75;;
75506;SDS011;64086;43.220;27.878;2022-10-16T16:03:53;6.68;;;4.72;;
75506;SDS011;64086;43.220;27.878;2022-10-16T16:06:20;6.57;;;4.80;;
75506;SDS011;64086;43.220;27.878;2022-10-16T16:08:46;6.60;;;5.40;;
75506;SDS011;64086;43.220;27.878;2022-10-16T16:11:13;6.32;;;5.03;;
75506;SDS011;64086;43.220;27.878;2022-10-16T16:13:40;7.97;;;5.20;;
75506;SDS011;64086;43.220;27.878;2022-10-16T16:16:13;6.25;;;5.25;;
75506;SDS011;64086;43.220;27.878;2022-10-16T16:18:41;8.27;;;5.97;;
75506;SDS011;64086;43.220;27.878;2022-10-16T16:21:07;7.43;;;5.78;;
75506;SDS011;64086;43.220;27.878;2022-10-16T16:23:34;7.65;;;6.90;;
75506;SDS011;64086;43.220;27.878;2022-10-16T16:26:04;8.23;;;6.93;;
75506;SDS011;64086;43.220;27.878;2022-10-16T16:28:29;8.60;;;6.25;;
75506;SDS011;64086;43.220;27.878;2022-10-16T16:30:55;7.72;;;7.03;;
75506;SDS011;64086;43.220;27.878;2022-10-16T16:33:20;8.10;;;6.63;;
75506;SDS011;64086;43.220;27.878;2022-10-16T16:35:46;7.20;;;6.50;;
75506;SDS011;64086;43.220;27.878;2022-10-16T16:38:11;8.70;;;6.93;;